• Join FlightAware (Why Join?)
  • Login
  • US Flag 
12:44PM EDT


 

Airport Tracker/Info


-or-


 

Live Flight TrackerFlight Track Log ✈ N802FR ✈ 03-Jun-2012 ✈ KAUS - KDEN

Flight Track Log - Related Links

Times and Time Zones

All times are in EDT time to prevent confusion due to time zone crossing. See the N802FR flight status page for this flight to view local times or setup timezone preferences in your user account.

Time Position Orientation Groundspeed Altitude Reporting Facility
EDT Latitude Longitude Course Direction KTS MPH feet Rate Location/Type
03:42PM 30.1581 -97.8689 310° West 247 284 8,700  Level Houston Center
03:46PM 30.3950 -98.2008 307° West 366 421 15,800 1,800 Climbing Houston Center
03:47PM 30.4511 -98.2864 310° West 372 428 17,800 2,040 Climbing Houston Center
03:48PM 30.5175 -98.3797 309° West 380 437 19,900 2,100 Climbing Houston Center
03:49PM 30.5875 -98.4808 309° West 391 450 22,000 1,860 Climbing Houston Center
03:50PM 30.6575 -98.5819 307° West 398 458 23,700 1,680 Climbing Houston Center
03:51PM 30.7250 -98.6881 312° West 410 472 25,400 1,740 Climbing Houston Center
03:52PM 30.8128 -98.8003 332° Northwest 420 483 27,200 1,620 Climbing Houston Center
03:53PM 30.9217 -98.8686 331° Northwest 425 489 28,700 1,440 Climbing Houston Center
03:54PM 31.0325 -98.9394 332° Northwest 431 496 30,100 1,200 Climbing Houston Center
03:55PM 31.1436 -99.0081 332° Northwest 444 511 31,200 1,320 Climbing Houston Center
03:57PM 31.4139 -99.1733 331° Northwest 453 521 34,700 1,320 Climbing Fort Worth Center
03:58PM 31.5236 -99.2436 330° Northwest 453 521 35,800 1,140 Climbing Fort Worth Center
03:59PM 31.6433 -99.3264 333° Northwest 453 521 37,000 1,020 Climbing Fort Worth Center
04:00PM 31.7550 -99.3947 332° Northwest 453 521 37,900 480 Climbing Fort Worth Center
04:01PM 31.8625 -99.4608 330° Northwest 453 521 38,000  Climbing Fort Worth Center
04:02PM 31.9719 -99.5342 332° Northwest 453 521 38,000  Level Fort Worth Center
04:03PM 32.0814 -99.6028 331° Northwest 447 514 38,000  Level Fort Worth Center
04:04PM 32.1886 -99.6742 331° Northwest 447 514 38,000  Level Fort Worth Center
04:05PM 32.2961 -99.7433 331° Northwest 442 509 38,000  Level Fort Worth Center
04:06PM 32.4033 -99.8125 330° Northwest 442 509 38,000  Level Fort Worth Center
04:07PM 32.5064 -99.8842 333° Northwest 436 502 38,000 -60 Level Fort Worth Center
04:08PM 32.6072 -99.9461 332° Northwest 436 502 37,900  Descending Fort Worth Center
04:09PM 32.7167 -100.0158 331° Northwest 442 509 38,000  Climbing Fort Worth Center
04:10PM 32.8278 -100.0883 331° Northwest 453 521 38,000  Level Fort Worth Center
04:11PM 32.9347 -100.1583 331° Northwest 453 521 38,000  Level Fort Worth Center
04:12PM 33.0458 -100.2311 332° Northwest 453 521 38,000  Level Fort Worth Center
04:13PM 33.1592 -100.3017 330° Northwest 453 521 38,000  Level Fort Worth Center
04:14PM 33.2658 -100.3747 332° Northwest 453 521 38,000  Level Fort Worth Center
04:15PM 33.3769 -100.4456 331° Northwest 453 521 38,000 -60 Level Fort Worth Center
04:16PM 33.4858 -100.5167 331° Northwest 453 521 37,900  Descending Fort Worth Center
04:17PM 33.5947 -100.5878 331° Northwest 453 521 38,000  Climbing Fort Worth Center
04:18PM 33.7033 -100.6592 330° Northwest 453 521 38,000  Level Fort Worth Center
04:19PM 33.8119 -100.7358 332° Northwest 453 521 38,000  Level Fort Worth Center
04:21PM 34.0450 -100.8875 331° Northwest 464 534 38,000  Level Albuquerque Center
04:23PM 34.2569 -101.0292 331° Northwest 448 516 38,000  Level Albuquerque Center
04:24PM 34.3631 -101.1017 331° Northwest 442 509 38,000  Level Albuquerque Center
04:25PM 34.4689 -101.1742 331° Northwest 442 509 38,000  Level Albuquerque Center
04:26PM 34.5728 -101.2444 331° Northwest 437 503 38,000  Level Albuquerque Center
04:27PM 34.6808 -101.3172 330° Northwest 437 503 38,000  Level Albuquerque Center
04:28PM 34.7847 -101.3903 331° Northwest 437 503 38,000  Level Albuquerque Center
04:29PM 34.8883 -101.4614 331° Northwest 432 497 38,000 -60 Level Albuquerque Center
04:30PM 34.9833 -101.5253 330° Northwest 432 497 37,900  Descending Albuquerque Center
04:31PM 35.0892 -101.5989 330° Northwest 438 504 38,000  Climbing Albuquerque Center
04:32PM 35.2056 -101.6797 336° Northwest 442 509 38,000  Level Albuquerque Center
04:33PM 35.3150 -101.7381 337° Northwest 442 509 38,000  Level Albuquerque Center
04:34PM 35.4261 -101.7967 337° Northwest 431 496 38,000  Level Albuquerque Center
04:35PM 35.5244 -101.8483 337° Northwest 421 484 38,000  Level Albuquerque Center
04:36PM 35.6358 -101.9072 338° Northwest 427 491 38,000  Level Albuquerque Center
04:37PM 35.7467 -101.9636 338° Northwest 427 491 38,000  Level Albuquerque Center
04:38PM 35.8578 -102.0200 338° Northwest 427 491 38,000  Level Albuquerque Center
04:39PM 35.9689 -102.0767 337° Northwest 427 491 38,000  Level Albuquerque Center
04:40PM 36.0778 -102.1339 337° Northwest 427 491 38,000  Level Albuquerque Center
04:41PM 36.1908 -102.1931 337° Northwest 427 491 38,000  Level Albuquerque Center
04:42PM 36.2997 -102.2506 337° Northwest 427 491 38,000  Level Albuquerque Center
04:43PM 36.4108 -102.3103 337° Northwest 427 491 38,000  Level Albuquerque Center
04:44PM 36.5197 -102.3681 338° Northwest 427 491 38,000  Level Albuquerque Center
04:45PM 36.6369 -102.4278 337° Northwest 420 483 38,000  Level Albuquerque Center
04:46PM 36.7456 -102.4856 337° Northwest 414 476 38,000  Level Albuquerque Center
04:47PM 36.8458 -102.5389 336° Northwest 421 484 38,000  Level Albuquerque Center
04:48PM 36.9653 -102.6044 336° Northwest 426 490 38,000  Level Albuquerque Center
04:49PM 37.0761 -102.6653 337° Northwest 426 490 38,000 -600 Level Albuquerque Center
04:52PM 37.3311 -102.7983 336° Northwest 422 486 36,100 -600 Descending Denver Center
04:53PM 37.4519 -102.8647 337° Northwest 424 488 36,000 -60 Descending Denver Center
04:54PM 37.5558 -102.9211 337° Northwest 425 489 36,000  Level Denver Center
04:55PM 37.6764 -102.9861 334° Northwest 423 487 36,000  Level Denver Center
04:56PM 37.7764 -103.0469 331° Northwest 421 484 36,000  Level Denver Center
04:57PM 37.8911 -103.1292 331° Northwest 425 489 36,000  Level Denver Center
04:58PM 37.9894 -103.1989 331° Northwest 424 488 36,000  Level Denver Center
04:59PM 38.1036 -103.2806 330° Northwest 424 488 36,000  Level Denver Center
05:00PM 38.2017 -103.3519 331° Northwest 426 490 36,000  Level Denver Center
05:01PM 38.3153 -103.4322 330° Northwest 421 484 36,000 -660 Level Denver Center
05:02PM 38.4269 -103.5139 331° Northwest 417 480 34,700 -1,980 Descending Denver Center
05:03PM 38.5247 -103.5833 330° Northwest 419 482 32,000 -2,520 Descending Denver Center
05:04PM 38.6394 -103.6681 331° Northwest 426 490 29,500 -2,220 Descending Denver Center
05:05PM 38.7353 -103.7364 330° Northwest 415 478 27,400 -2,100 Descending Denver Center
05:06PM 38.8422 -103.8144 330° Northwest 399 459 25,200 -2,040 Descending Denver Center
05:07PM 38.9339 -103.8825 330° Northwest 383 441 23,200 -1,920 Descending Denver Center
05:08PM 39.0231 -103.9492 330° Northwest 372 428 21,300 -1,860 Descending Denver Center
05:09PM 39.1100 -104.0131 330° Northwest 362 417 19,400 -1,740 Descending Denver Center
05:10PM 39.1944 -104.0756 325° Northwest 352 405 17,700 -1,440 Descending Denver Center
05:11PM 39.2797 -104.1536 324° Northwest 342 394 16,500 -1,140 Descending Denver Center
05:13PM 39.3575 -104.2256 324° Northwest 320 368 15,400 -960 Descending Denver Center
05:14PM 39.4239 -104.2886 323° Northwest 301 346 14,500 -960 Descending Denver Center
05:15PM 39.4953 -104.3572 319° Northwest 298 343 13,400 -960 Descending Denver Center
05:15PM 39.5333 -104.4000 322° Northwest 302 348 13,000 -360 Descending Denver TRACON
05:16PM 39.6000 -104.4667 328° Northwest 304 350 12,900  Descending Denver TRACON
05:17PM 39.6833 -104.5333 322° Northwest 307 353 13,000 -660 Climbing Denver TRACON
05:18PM 39.7500 -104.6000 298° West 306 352 11,600 -1,080 Descending Denver TRACON
05:19PM 39.7833 -104.6833 270° West 290 334 11,000 -420 Descending Denver TRACON
05:20PM 39.7833 -104.7667 270° West 228 262 10,900 -720 Descending Denver TRACON
05:21PM 39.7833 -104.8500 287° West 206 237 9,500 -1,500 Descending Denver TRACON
05:22PM 39.7911 -104.8831 33° Northeast 205 236 8,400 -1,500 Descending Denver Center
05:23PM 39.8378 -104.8433 86° East 193 222 7,000 -1,080 Descending Denver Center
05:24PM 39.8411 -104.7842 91° East 163 188 6,200 -720 Descending Denver Center
05:25PM 39.8406 -104.7275 91° East 149 171 5,500 -420 Descending Denver Center
05:26PM 39.8394 -104.6719 91° East 150 173 5,400 -120 Descending Denver Center